sensor_id;sensor_type;location;lat;lon;timestamp;temperature;humidity
62912;DHT22;49111;51.028;4.218;2022-08-21T00:01:25;17.10;98.30
62912;DHT22;49111;51.028;4.218;2022-08-21T00:03:52;17.10;98.40
62912;DHT22;49111;51.028;4.218;2022-08-21T00:06:18;17.10;98.60
62912;DHT22;49111;51.028;4.218;2022-08-21T00:08:44;17.10;98.50
62912;DHT22;49111;51.028;4.218;2022-08-21T00:11:10;17.00;98.50
62912;DHT22;49111;51.028;4.218;2022-08-21T00:13:36;17.00;98.60
62912;DHT22;49111;51.028;4.218;2022-08-21T00:16:03;17.00;98.60
62912;DHT22;49111;51.028;4.218;2022-08-21T00:18:29;17.00;98.50
62912;DHT22;49111;51.028;4.218;2022-08-21T00:20:55;17.00;98.50
62912;DHT22;49111;51.028;4.218;2022-08-21T00:23:21;17.00;98.60
62912;DHT22;49111;51.028;4.218;2022-08-21T00:25:47;16.90;98.50
62912;DHT22;49111;51.028;4.218;2022-08-21T00:28:13;16.90;98.60
62912;DHT22;49111;51.028;4.218;2022-08-21T00:30:40;16.90;98.70
62912;DHT22;49111;51.028;4.218;2022-08-21T00:33:06;16.80;98.70
62912;DHT22;49111;51.028;4.218;2022-08-21T00:35:37;16.80;98.80
62912;DHT22;49111;51.028;4.218;2022-08-21T00:38:04;16.80;98.80
62912;DHT22;49111;51.028;4.218;2022-08-21T00:40:37;16.80;98.80
62912;DHT22;49111;51.028;4.218;2022-08-21T00:43:04;16.80;98.80
62912;DHT22;49111;51.028;4.218;2022-08-21T00:45:31;16.70;98.90
62912;DHT22;49111;51.028;4.218;2022-08-21T00:47:57;16.70;98.90
62912;DHT22;49111;51.028;4.218;2022-08-21T00:50:26;16.70;98.90
62912;DHT22;49111;51.028;4.218;2022-08-21T00:52:54;16.60;99.00
62912;DHT22;49111;51.028;4.218;2022-08-21T00:55:21;16.60;99.10
62912;DHT22;49111;51.028;4.218;2022-08-21T00:57:51;16.60;99.10
62912;DHT22;49111;51.028;4.218;2022-08-21T01:00:21;16.60;99.00
62912;DHT22;49111;51.028;4.218;2022-08-21T01:02:47;16.60;99.10
62912;DHT22;49111;51.028;4.218;2022-08-21T01:05:14;16.60;98.90
62912;DHT22;49111;51.028;4.218;2022-08-21T01:07:41;16.60;99.10
62912;DHT22;49111;51.028;4.218;2022-08-21T01:10:07;16.60;99.20
62912;DHT22;49111;51.028;4.218;2022-08-21T01:12:34;16.50;99.20
62912;DHT22;49111;51.028;4.218;2022-08-21T01:15:02;16.50;99.60
62912;DHT22;49111;51.028;4.218;2022-08-21T01:17:28;16.50;99.30
62912;DHT22;49111;51.028;4.218;2022-08-21T01:19:58;16.50;99.50
62912;DHT22;49111;51.028;4.218;2022-08-21T01:22:25;16.50;99.50
62912;DHT22;49111;51.028;4.218;2022-08-21T01:24:51;16.50;99.60
62912;DHT22;49111;51.028;4.218;2022-08-21T01:27:17;16.50;99.50
62912;DHT22;49111;51.028;4.218;2022-08-21T01:29:48;16.40;99.60
62912;DHT22;49111;51.028;4.218;2022-08-21T01:32:18;16.40;99.50
62912;DHT22;49111;51.028;4.218;2022-08-21T01:34:46;16.40;99.70
62912;DHT22;49111;51.028;4.218;2022-08-21T01:37:13;16.40;99.70
62912;DHT22;49111;51.028;4.218;2022-08-21T01:39:40;16.40;99.70
62912;DHT22;49111;51.028;4.218;2022-08-21T01:42:07;16.40;99.60
62912;DHT22;49111;51.028;4.218;2022-08-21T01:44:33;16.40;99.60
62912;DHT22;49111;51.028;4.218;2022-08-21T01:47:01;16.30;99.70
62912;DHT22;49111;51.028;4.218;2022-08-21T01:49:27;16.30;99.50
62912;DHT22;49111;51.028;4.218;2022-08-21T01:51:53;16.30;99.50
62912;DHT22;49111;51.028;4.218;2022-08-21T01:54:20;16.30;99.50
62912;DHT22;49111;51.028;4.218;2022-08-21T01:56:49;16.20;99.50
62912;DHT22;49111;51.028;4.218;2022-08-21T01:59:16;16.20;99.70
62912;DHT22;49111;51.028;4.218;2022-08-21T02:01:42;16.20;99.80
62912;DHT22;49111;51.028;4.218;2022-08-21T02:04:09;16.20;99.80
62912;DHT22;49111;51.028;4.218;2022-08-21T02:06:35;16.10;99.80
62912;DHT22;49111;51.028;4.218;2022-08-21T02:09:06;16.10;99.80
62912;DHT22;49111;51.028;4.218;2022-08-21T02:11:32;16.10;99.90
62912;DHT22;49111;51.028;4.218;2022-08-21T02:13:58;16.00;99.80
62912;DHT22;49111;51.028;4.218;2022-08-21T02:16:24;16.00;99.80
62912;DHT22;49111;51.028;4.218;2022-08-21T02:18:50;16.00;99.90
62912;DHT22;49111;51.028;4.218;2022-08-21T02:21:16;16.00;99.90
62912;DHT22;49111;51.028;4.218;2022-08-21T02:23:42;16.00;99.90
62912;DHT22;49111;51.028;4.218;2022-08-21T02:26:08;15.90;99.90
62912;DHT22;49111;51.028;4.218;2022-08-21T02:28:35;15.90;99.90
62912;DHT22;49111;51.028;4.218;2022-08-21T02:31:02;15.90;99.90
62912;DHT22;49111;51.028;4.218;2022-08-21T02:33:28;15.90;99.90
62912;DHT22;49111;51.028;4.218;2022-08-21T02:35:54;15.80;99.90
62912;DHT22;49111;51.028;4.218;2022-08-21T02:38:30;15.80;99.90
62912;DHT22;49111;51.028;4.218;2022-08-21T02:40:57;15.80;99.90
62912;DHT22;49111;51.028;4.218;2022-08-21T02:43:25;15.80;99.90
62912;DHT22;49111;51.028;4.218;2022-08-21T02:45:52;15.80;99.90
62912;DHT22;49111;51.028;4.218;2022-08-21T02:48:21;15.80;99.90
62912;DHT22;49111;51.028;4.218;2022-08-21T02:50:55;15.70;99.90
62912;DHT22;49111;51.028;4.218;2022-08-21T02:53:22;15.70;99.90
62912;DHT22;49111;51.028;4.218;2022-08-21T02:55:49;15.60;99.90
62912;DHT22;49111;51.028;4.218;2022-08-21T02:58:24;15.60;99.90
62912;DHT22;49111;51.028;4.218;2022-08-21T03:00:50;15.60;99.90
62912;DHT22;49111;51.028;4.218;2022-08-21T03:03:17;15.60;99.90
62912;DHT22;49111;51.028;4.218;2022-08-21T03:05:43;15.60;99.90
62912;DHT22;49111;51.028;4.218;2022-08-21T03:08:11;15.60;99.90
62912;DHT22;49111;51.028;4.218;2022-08-21T03:10:39;15.60;99.90
62912;DHT22;49111;51.028;4.218;2022-08-21T03:13:05;15.60;99.90
62912;DHT22;49111;51.028;4.218;2022-08-21T03:15:32;15.60;99.90
62912;DHT22;49111;51.028;4.218;2022-08-21T03:17:58;15.60;99.90
62912;DHT22;49111;51.028;4.218;2022-08-21T03:20:27;15.50;99.90
62912;DHT22;49111;51.028;4.218;2022-08-21T03:22:53;15.60;99.90
62912;DHT22;49111;51.028;4.218;2022-08-21T03:25:21;15.60;99.90
62912;DHT22;49111;51.028;4.218;2022-08-21T03:27:48;15.50;99.90
62912;DHT22;49111;51.028;4.218;2022-08-21T03:30:18;15.50;99.90
62912;DHT22;49111;51.028;4.218;2022-08-21T03:32:45;15.50;99.90
62912;DHT22;49111;51.028;4.218;2022-08-21T03:35:12;15.50;99.90
62912;DHT22;49111;51.028;4.218;2022-08-21T03:37:38;15.50;99.90
62912;DHT22;49111;51.028;4.218;2022-08-21T03:40:07;15.50;99.90
62912;DHT22;49111;51.028;4.218;2022-08-21T03:42:33;15.50;99.90
62912;DHT22;49111;51.028;4.218;2022-08-21T03:44:59;15.50;99.90
62912;DHT22;49111;51.028;4.218;2022-08-21T03:47:25;15.50;99.90
62912;DHT22;49111;51.028;4.218;2022-08-21T03:49:51;15.50;99.90
62912;DHT22;49111;51.028;4.218;2022-08-21T03:52:17;15.50;99.90
62912;DHT22;49111;51.028;4.218;2022-08-21T03:54:44;15.50;99.90
62912;DHT22;49111;51.028;4.218;2022-08-21T03:57:13;15.50;99.90
62912;DHT22;49111;51.028;4.218;2022-08-21T03:59:39;15.40;99.90
62912;DHT22;49111;51.028;4.218;2022-08-21T04:02:06;15.50;99.90
62912;DHT22;49111;51.028;4.218;2022-08-21T04:04:33;15.40;99.90
62912;DHT22;49111;51.028;4.218;2022-08-21T04:07:00;15.40;99.90
62912;DHT22;49111;51.028;4.218;2022-08-21T04:09:26;15.30;99.90
62912;DHT22;49111;51.028;4.218;2022-08-21T04:11:53;15.30;99.90
62912;DHT22;49111;51.028;4.218;2022-08-21T04:14:19;15.30;99.90
62912;DHT22;49111;51.028;4.218;2022-08-21T04:16:45;15.30;99.90
62912;DHT22;49111;51.028;4.218;2022-08-21T04:19:11;15.30;99.90
62912;DHT22;49111;51.028;4.218;2022-08-21T04:21:39;15.30;99.90
62912;DHT22;49111;51.028;4.218;2022-08-21T04:24:07;15.30;99.90
62912;DHT22;49111;51.028;4.218;2022-08-21T04:26:38;15.30;99.90
62912;DHT22;49111;51.028;4.218;2022-08-21T04:29:05;15.20;99.90
62912;DHT22;49111;51.028;4.218;2022-08-21T04:31:33;15.20;99.90
62912;DHT22;49111;51.028;4.218;2022-08-21T04:33:59;15.20;99.90
62912;DHT22;49111;51.028;4.218;2022-08-21T04:36:24;15.20;99.90
62912;DHT22;49111;51.028;4.218;2022-08-21T04:38:50;15.10;99.90
62912;DHT22;49111;51.028;4.218;2022-08-21T04:41:17;15.10;99.90
62912;DHT22;49111;51.028;4.218;2022-08-21T04:43:43;15.10;99.90
62912;DHT22;49111;51.028;4.218;2022-08-21T04:46:08;15.10;99.90
62912;DHT22;49111;51.028;4.218;2022-08-21T04:48:34;15.10;99.90
62912;DHT22;49111;51.028;4.218;2022-08-21T04:51:14;15.10;99.90
62912;DHT22;49111;51.028;4.218;2022-08-21T04:53:45;15.10;99.90
62912;DHT22;49111;51.028;4.218;2022-08-21T04:56:27;15.10;99.90
62912;DHT22;49111;51.028;4.218;2022-08-21T04:58:58;15.20;99.90
62912;DHT22;49111;51.028;4.218;2022-08-21T05:01:27;15.20;99.90
62912;DHT22;49111;51.028;4.218;2022-08-21T05:03:58;15.30;99.90
62912;DHT22;49111;51.028;4.218;2022-08-21T05:06:26;15.30;99.90
62912;DHT22;49111;51.028;4.218;2022-08-21T05:08:55;15.40;99.90
62912;DHT22;49111;51.028;4.218;2022-08-21T05:11:21;15.30;99.90
62912;DHT22;49111;51.028;4.218;2022-08-21T05:13:48;15.40;99.90
62912;DHT22;49111;51.028;4.218;2022-08-21T05:16:15;15.40;99.90
62912;DHT22;49111;51.028;4.218;2022-08-21T05:18:41;15.40;99.90
62912;DHT22;49111;51.028;4.218;2022-08-21T05:21:07;15.40;99.90
62912;DHT22;49111;51.028;4.218;2022-08-21T05:23:33;15.40;99.90
62912;DHT22;49111;51.028;4.218;2022-08-21T05:25:59;15.50;99.90
62912;DHT22;49111;51.028;4.218;2022-08-21T05:28:25;15.50;99.90
62912;DHT22;49111;51.028;4.218;2022-08-21T05:30:51;15.50;99.90
62912;DHT22;49111;51.028;4.218;2022-08-21T05:33:17;15.60;99.90
62912;DHT22;49111;51.028;4.218;2022-08-21T05:35:43;15.60;99.90
62912;DHT22;49111;51.028;4.218;2022-08-21T05:38:09;15.70;99.90
62912;DHT22;49111;51.028;4.218;2022-08-21T05:40:34;15.70;99.90
62912;DHT22;49111;51.028;4.218;2022-08-21T05:43:00;15.80;99.90
62912;DHT22;49111;51.028;4.218;2022-08-21T05:45:29;15.80;99.90
62912;DHT22;49111;51.028;4.218;2022-08-21T05:47:55;15.90;99.90
62912;DHT22;49111;51.028;4.218;2022-08-21T05:50:21;15.90;99.90
62912;DHT22;49111;51.028;4.218;2022-08-21T05:52:47;15.90;99.90
62912;DHT22;49111;51.028;4.218;2022-08-21T05:55:13;16.00;99.90
62912;DHT22;49111;51.028;4.218;2022-08-21T05:57:38;16.00;99.90
62912;DHT22;49111;51.028;4.218;2022-08-21T06:00:08;16.10;99.90
62912;DHT22;49111;51.028;4.218;2022-08-21T06:02:39;16.10;99.90
62912;DHT22;49111;51.028;4.218;2022-08-21T06:05:06;16.20;99.90
62912;DHT22;49111;51.028;4.218;2022-08-21T06:07:32;16.30;99.90
62912;DHT22;49111;51.028;4.218;2022-08-21T06:09:58;16.40;99.90
62912;DHT22;49111;51.028;4.218;2022-08-21T06:12:23;16.60;99.90
62912;DHT22;49111;51.028;4.218;2022-08-21T06:14:50;16.60;99.90
62912;DHT22;49111;51.028;4.218;2022-08-21T06:17:18;16.60;99.90
62912;DHT22;49111;51.028;4.218;2022-08-21T06:19:43;16.50;99.90
62912;DHT22;49111;51.028;4.218;2022-08-21T06:22:09;16.60;99.90
62912;DHT22;49111;51.028;4.218;2022-08-21T06:24:35;16.60;99.90
62912;DHT22;49111;51.028;4.218;2022-08-21T06:27:06;16.70;99.90
62912;DHT22;49111;51.028;4.218;2022-08-21T06:29:33;16.80;99.90
62912;DHT22;49111;51.028;4.218;2022-08-21T06:32:00;16.80;99.90
62912;DHT22;49111;51.028;4.218;2022-08-21T06:34:27;16.90;99.90
62912;DHT22;49111;51.028;4.218;2022-08-21T06:36:52;17.00;99.90
62912;DHT22;49111;51.028;4.218;2022-08-21T06:39:18;16.90;99.90
62912;DHT22;49111;51.028;4.218;2022-08-21T06:41:44;16.90;99.90
62912;DHT22;49111;51.028;4.218;2022-08-21T06:44:11;17.10;99.90
62912;DHT22;49111;51.028;4.218;2022-08-21T06:46:37;17.10;99.90
62912;DHT22;49111;51.028;4.218;2022-08-21T06:49:03;17.10;99.90
62912;DHT22;49111;51.028;4.218;2022-08-21T06:51:29;17.20;99.90
62912;DHT22;49111;51.028;4.218;2022-08-21T06:53:55;17.20;99.90
62912;DHT22;49111;51.028;4.218;2022-08-21T06:56:21;17.30;99.90
62912;DHT22;49111;51.028;4.218;2022-08-21T06:58:47;17.30;99.90
62912;DHT22;49111;51.028;4.218;2022-08-21T07:01:13;17.30;99.90
62912;DHT22;49111;51.028;4.218;2022-08-21T07:03:41;17.40;99.90
62912;DHT22;49111;51.028;4.218;2022-08-21T07:06:09;17.40;99.90
62912;DHT22;49111;51.028;4.218;2022-08-21T07:08:36;17.50;99.90
62912;DHT22;49111;51.028;4.218;2022-08-21T07:11:04;17.70;99.90
62912;DHT22;49111;51.028;4.218;2022-08-21T07:13:32;17.70;99.90
62912;DHT22;49111;51.028;4.218;2022-08-21T07:15:58;17.80;99.90
62912;DHT22;49111;51.028;4.218;2022-08-21T07:18:24;17.80;99.90
62912;DHT22;49111;51.028;4.218;2022-08-21T07:20:50;17.80;99.90
62912;DHT22;49111;51.028;4.218;2022-08-21T07:23:26;17.80;99.90
62912;DHT22;49111;51.028;4.218;2022-08-21T07:25:53;18.00;99.90
62912;DHT22;49111;51.028;4.218;2022-08-21T07:28:19;18.00;99.90
62912;DHT22;49111;51.028;4.218;2022-08-21T07:30:46;18.20;99.90
62912;DHT22;49111;51.028;4.218;2022-08-21T07:33:16;18.30;99.90
62912;DHT22;49111;51.028;4.218;2022-08-21T07:35:41;18.50;99.90
62912;DHT22;49111;51.028;4.218;2022-08-21T07:38:07;18.60;99.90
62912;DHT22;49111;51.028;4.218;2022-08-21T07:40:33;18.60;99.90
62912;DHT22;49111;51.028;4.218;2022-08-21T07:42:59;18.60;99.90
62912;DHT22;49111;51.028;4.218;2022-08-21T07:45:25;18.70;99.90
62912;DHT22;49111;51.028;4.218;2022-08-21T07:47:52;18.70;99.90
62912;DHT22;49111;51.028;4.218;2022-08-21T07:50:18;18.80;99.90
62912;DHT22;49111;51.028;4.218;2022-08-21T07:52:44;18.90;99.90
62912;DHT22;49111;51.028;4.218;2022-08-21T07:55:14;19.20;99.90
62912;DHT22;49111;51.028;4.218;2022-08-21T07:57:40;19.40;99.60
62912;DHT22;49111;51.028;4.218;2022-08-21T08:00:08;19.40;99.80
62912;DHT22;49111;51.028;4.218;2022-08-21T08:02:38;19.40;99.80
62912;DHT22;49111;51.028;4.218;2022-08-21T08:05:08;19.60;99.00
62912;DHT22;49111;51.028;4.218;2022-08-21T08:07:35;19.70;99.10
62912;DHT22;49111;51.028;4.218;2022-08-21T08:10:02;19.60;99.30
62912;DHT22;49111;51.028;4.218;2022-08-21T08:12:28;19.70;99.00
62912;DHT22;49111;51.028;4.218;2022-08-21T08:14:58;19.90;98.50
62912;DHT22;49111;51.028;4.218;2022-08-21T08:17:25;19.90;99.00
62912;DHT22;49111;51.028;4.218;2022-08-21T08:19:52;19.90;98.80
62912;DHT22;49111;51.028;4.218;2022-08-21T08:22:21;19.90;98.50
62912;DHT22;49111;51.028;4.218;2022-08-21T08:24:48;19.90;98.90
62912;DHT22;49111;51.028;4.218;2022-08-21T08:27:15;19.90;98.90
62912;DHT22;49111;51.028;4.218;2022-08-21T08:29:42;19.90;99.10
62912;DHT22;49111;51.028;4.218;2022-08-21T08:32:07;20.00;98.40
62912;DHT22;49111;51.028;4.218;2022-08-21T08:34:35;20.00;98.70
62912;DHT22;49111;51.028;4.218;2022-08-21T08:37:01;20.00;98.70
62912;DHT22;49111;51.028;4.218;2022-08-21T08:39:30;19.90;98.70
62912;DHT22;49111;51.028;4.218;2022-08-21T08:42:07;20.10;98.60
62912;DHT22;49111;51.028;4.218;2022-08-21T08:44:36;20.20;97.90
62912;DHT22;49111;51.028;4.218;2022-08-21T08:47:03;20.20;97.80
62912;DHT22;49111;51.028;4.218;2022-08-21T08:50:00;20.20;97.30
62912;DHT22;49111;51.028;4.218;2022-08-21T08:52:30;20.50;96.70
62912;DHT22;49111;51.028;4.218;2022-08-21T08:57:45;20.70;96.40
62912;DHT22;49111;51.028;4.218;2022-08-21T09:00:14;20.80;96.20
62912;DHT22;49111;51.028;4.218;2022-08-21T09:02:42;21.00;95.20
62912;DHT22;49111;51.028;4.218;2022-08-21T09:05:24;21.00;95.50
62912;DHT22;49111;51.028;4.218;2022-08-21T09:11:07;21.30;95.00
62912;DHT22;49111;51.028;4.218;2022-08-21T09:13:56;21.40;95.00
62912;DHT22;49111;51.028;4.218;2022-08-21T09:16:41;21.70;94.40
62912;DHT22;49111;51.028;4.218;2022-08-21T09:19:26;21.80;94.20
62912;DHT22;49111;51.028;4.218;2022-08-21T09:25:18;22.10;93.30
62912;DHT22;49111;51.028;4.218;2022-08-21T09:27:46;22.10;93.20
62912;DHT22;49111;51.028;4.218;2022-08-21T09:30:12;22.20;92.60
62912;DHT22;49111;51.028;4.218;2022-08-21T09:32:39;22.30;93.00
62912;DHT22;49111;51.028;4.218;2022-08-21T09:37:34;22.20;92.30
62912;DHT22;49111;51.028;4.218;2022-08-21T09:40:02;22.20;92.60
62912;DHT22;49111;51.028;4.218;2022-08-21T09:42:31;22.20;92.70
62912;DHT22;49111;51.028;4.218;2022-08-21T09:45:23;22.10;92.70
62912;DHT22;49111;51.028;4.218;2022-08-21T09:47:49;22.00;93.00
62912;DHT22;49111;51.028;4.218;2022-08-21T09:50:23;22.10;92.70
62912;DHT22;49111;51.028;4.218;2022-08-21T09:53:00;22.40;92.30
62912;DHT22;49111;51.028;4.218;2022-08-21T09:55:39;22.40;92.70
62912;DHT22;49111;51.028;4.218;2022-08-21T09:58:33;22.30;92.50
62912;DHT22;49111;51.028;4.218;2022-08-21T10:01:02;22.50;92.30
62912;DHT22;49111;51.028;4.218;2022-08-21T10:03:29;22.70;92.10
62912;DHT22;49111;51.028;4.218;2022-08-21T10:06:02;22.60;91.80
62912;DHT22;49111;51.028;4.218;2022-08-21T10:08:32;22.60;91.70
62912;DHT22;49111;51.028;4.218;2022-08-21T10:11:09;22.60;92.20
62912;DHT22;49111;51.028;4.218;2022-08-21T10:35:10;23.90;89.50
62912;DHT22;49111;51.028;4.218;2022-08-21T10:40:34;24.10;88.50
62912;DHT22;49111;51.028;4.218;2022-08-21T10:48:51;23.80;88.80
62912;DHT22;49111;51.028;4.218;2022-08-21T10:56:42;23.60;90.00
62912;DHT22;49111;51.028;4.218;2022-08-21T10:59:20;23.70;89.90
62912;DHT22;49111;51.028;4.218;2022-08-21T11:04:40;24.10;86.50
62912;DHT22;49111;51.028;4.218;2022-08-21T11:10:24;24.50;85.10
62912;DHT22;49111;51.028;4.218;2022-08-21T11:18:22;24.90;85.00
62912;DHT22;49111;51.028;4.218;2022-08-21T11:21:03;25.10;83.00
62912;DHT22;49111;51.028;4.218;2022-08-21T11:26:09;24.80;83.80
62912;DHT22;49111;51.028;4.218;2022-08-21T11:28:46;24.80;83.10
62912;DHT22;49111;51.028;4.218;2022-08-21T11:42:24;24.10;84.20
62912;DHT22;49111;51.028;4.218;2022-08-21T11:45:11;24.10;85.10
62912;DHT22;49111;51.028;4.218;2022-08-21T11:50:32;24.00;84.30
62912;DHT22;49111;51.028;4.218;2022-08-21T11:53:08;24.00;84.80
62912;DHT22;49111;51.028;4.218;2022-08-21T12:01:05;24.30;81.50
62912;DHT22;49111;51.028;4.218;2022-08-21T12:03:35;24.60;83.50
62912;DHT22;49111;51.028;4.218;2022-08-21T12:06:11;24.80;82.40
62912;DHT22;49111;51.028;4.218;2022-08-21T12:08:43;25.10;82.00
62912;DHT22;49111;51.028;4.218;2022-08-21T12:11:23;25.50;80.30
62912;DHT22;49111;51.028;4.218;2022-08-21T12:14:00;25.70;79.20
62912;DHT22;49111;51.028;4.218;2022-08-21T12:19:10;25.70;77.80
62912;DHT22;49111;51.028;4.218;2022-08-21T12:25:05;25.20;79.40
62912;DHT22;49111;51.028;4.218;2022-08-21T12:30:01;25.30;77.40
62912;DHT22;49111;51.028;4.218;2022-08-21T12:32:54;25.40;77.50
62912;DHT22;49111;51.028;4.218;2022-08-21T12:35:32;25.20;78.20
62912;DHT22;49111;51.028;4.218;2022-08-21T12:38:06;25.00;79.00
62912;DHT22;49111;51.028;4.218;2022-08-21T12:40:49;25.10;77.70
62912;DHT22;49111;51.028;4.218;2022-08-21T12:43:29;25.20;77.80
62912;DHT22;49111;51.028;4.218;2022-08-21T12:45:56;25.40;78.20
62912;DHT22;49111;51.028;4.218;2022-08-21T12:51:15;25.50;79.20
62912;DHT22;49111;51.028;4.218;2022-08-21T12:53:51;25.30;77.80
62912;DHT22;49111;51.028;4.218;2022-08-21T12:56:23;25.20;79.70
62912;DHT22;49111;51.028;4.218;2022-08-21T12:58:53;25.10;78.10
62912;DHT22;49111;51.028;4.218;2022-08-21T13:01:31;25.00;78.90
62912;DHT22;49111;51.028;4.218;2022-08-21T13:04:05;25.00;78.80
62912;DHT22;49111;51.028;4.218;2022-08-21T13:06:38;25.20;78.20
62912;DHT22;49111;51.028;4.218;2022-08-21T13:09:07;25.30;77.40
62912;DHT22;49111;51.028;4.218;2022-08-21T13:11:34;25.50;77.80
62912;DHT22;49111;51.028;4.218;2022-08-21T13:14:02;25.70;77.40
62912;DHT22;49111;51.028;4.218;2022-08-21T13:16:29;25.90;77.10
62912;DHT22;49111;51.028;4.218;2022-08-21T13:19:06;26.00;75.90
62912;DHT22;49111;51.028;4.218;2022-08-21T13:21:43;26.20;75.80
62912;DHT22;49111;51.028;4.218;2022-08-21T13:24:13;26.40;75.60
62912;DHT22;49111;51.028;4.218;2022-08-21T13:26:40;26.70;74.30
62912;DHT22;49111;51.028;4.218;2022-08-21T13:29:17;26.70;72.50
62912;DHT22;49111;51.028;4.218;2022-08-21T13:31:56;26.70;71.90
62912;DHT22;49111;51.028;4.218;2022-08-21T13:34:25;26.80;72.30
62912;DHT22;49111;51.028;4.218;2022-08-21T13:37:05;26.80;73.80
62912;DHT22;49111;51.028;4.218;2022-08-21T13:39:32;26.80;72.50
62912;DHT22;49111;51.028;4.218;2022-08-21T13:42:00;27.10;72.20
62912;DHT22;49111;51.028;4.218;2022-08-21T13:44:36;27.20;70.90
62912;DHT22;49111;51.028;4.218;2022-08-21T13:47:07;27.20;70.50
62912;DHT22;49111;51.028;4.218;2022-08-21T13:49:37;27.30;70.40
62912;DHT22;49111;51.028;4.218;2022-08-21T13:52:04;27.40;70.60
62912;DHT22;49111;51.028;4.218;2022-08-21T13:54:40;27.60;70.30
62912;DHT22;49111;51.028;4.218;2022-08-21T13:57:18;27.60;69.20
62912;DHT22;49111;51.028;4.218;2022-08-21T13:59:45;27.50;69.20
62912;DHT22;49111;51.028;4.218;2022-08-21T14:02:18;27.20;69.50
62912;DHT22;49111;51.028;4.218;2022-08-21T14:04:58;27.20;68.90
62912;DHT22;49111;51.028;4.218;2022-08-21T14:07:28;27.20;69.10
62912;DHT22;49111;51.028;4.218;2022-08-21T14:09:55;27.20;68.90
62912;DHT22;49111;51.028;4.218;2022-08-21T14:12:35;27.10;68.60
62912;DHT22;49111;51.028;4.218;2022-08-21T14:15:04;26.70;70.40
62912;DHT22;49111;51.028;4.218;2022-08-21T14:17:34;26.50;70.20
62912;DHT22;49111;51.028;4.218;2022-08-21T14:20:03;26.40;70.20
62912;DHT22;49111;51.028;4.218;2022-08-21T14:22:39;26.20;70.40
62912;DHT22;49111;51.028;4.218;2022-08-21T14:28:15;26.20;71.40
62912;DHT22;49111;51.028;4.218;2022-08-21T14:30:44;26.20;71.50
62912;DHT22;49111;51.028;4.218;2022-08-21T14:33:12;26.10;72.10
62912;DHT22;49111;51.028;4.218;2022-08-21T14:35:40;26.20;71.50
62912;DHT22;49111;51.028;4.218;2022-08-21T14:38:34;26.20;71.70
62912;DHT22;49111;51.028;4.218;2022-08-21T14:41:05;26.30;71.20
62912;DHT22;49111;51.028;4.218;2022-08-21T14:43:33;26.20;73.00
62912;DHT22;49111;51.028;4.218;2022-08-21T14:46:00;26.20;72.10
62912;DHT22;49111;51.028;4.218;2022-08-21T14:48:26;26.30;71.40
62912;DHT22;49111;51.028;4.218;2022-08-21T14:50:52;26.10;71.40
62912;DHT22;49111;51.028;4.218;2022-08-21T14:53:18;26.10;71.40
62912;DHT22;49111;51.028;4.218;2022-08-21T14:55:44;26.00;71.60
62912;DHT22;49111;51.028;4.218;2022-08-21T14:58:29;26.20;71.90
62912;DHT22;49111;51.028;4.218;2022-08-21T15:00:55;26.20;71.40
62912;DHT22;49111;51.028;4.218;2022-08-21T15:03:24;26.20;71.40
62912;DHT22;49111;51.028;4.218;2022-08-21T15:05:52;26.20;71.90
62912;DHT22;49111;51.028;4.218;2022-08-21T15:08:18;26.00;72.10
62912;DHT22;49111;51.028;4.218;2022-08-21T15:10:44;26.10;71.00
62912;DHT22;49111;51.028;4.218;2022-08-21T15:13:10;26.10;71.20
62912;DHT22;49111;51.028;4.218;2022-08-21T15:15:43;26.30;72.10
62912;DHT22;49111;51.028;4.218;2022-08-21T15:18:09;26.30;71.90
62912;DHT22;49111;51.028;4.218;2022-08-21T15:20:36;26.30;71.50
62912;DHT22;49111;51.028;4.218;2022-08-21T15:23:03;26.50;70.50
62912;DHT22;49111;51.028;4.218;2022-08-21T15:25:29;26.40;71.90
62912;DHT22;49111;51.028;4.218;2022-08-21T15:27:56;26.40;71.10
62912;DHT22;49111;51.028;4.218;2022-08-21T15:30:23;26.30;72.40
62912;DHT22;49111;51.028;4.218;2022-08-21T15:32:49;26.30;71.80
62912;DHT22;49111;51.028;4.218;2022-08-21T15:35:15;26.30;71.60
62912;DHT22;49111;51.028;4.218;2022-08-21T15:37:40;26.10;71.70
62912;DHT22;49111;51.028;4.218;2022-08-21T15:40:07;26.00;71.10
62912;DHT22;49111;51.028;4.218;2022-08-21T15:42:34;26.00;71.30
62912;DHT22;49111;51.028;4.218;2022-08-21T15:45:00;26.00;71.40
62912;DHT22;49111;51.028;4.218;2022-08-21T15:47:31;26.00;71.30
62912;DHT22;49111;51.028;4.218;2022-08-21T15:49:58;26.00;71.40
62912;DHT22;49111;51.028;4.218;2022-08-21T15:52:24;26.00;72.00
62912;DHT22;49111;51.028;4.218;2022-08-21T15:54:50;25.90;72.40
62912;DHT22;49111;51.028;4.218;2022-08-21T15:57:18;25.80;72.60
62912;DHT22;49111;51.028;4.218;2022-08-21T15:59:50;25.90;72.20
62912;DHT22;49111;51.028;4.218;2022-08-21T16:02:29;25.70;72.00
62912;DHT22;49111;51.028;4.218;2022-08-21T16:04:56;25.70;71.90
62912;DHT22;49111;51.028;4.218;2022-08-21T16:07:22;25.60;71.90
62912;DHT22;49111;51.028;4.218;2022-08-21T16:09:48;25.60;72.00
62912;DHT22;49111;51.028;4.218;2022-08-21T16:12:22;25.50;72.30
62912;DHT22;49111;51.028;4.218;2022-08-21T16:14:51;25.40;72.40
62912;DHT22;49111;51.028;4.218;2022-08-21T16:17:18;25.40;72.70
62912;DHT22;49111;51.028;4.218;2022-08-21T16:19:44;25.30;73.20
62912;DHT22;49111;51.028;4.218;2022-08-21T16:22:10;25.20;73.20
62912;DHT22;49111;51.028;4.218;2022-08-21T16:24:36;25.20;73.40
62912;DHT22;49111;51.028;4.218;2022-08-21T16:27:03;25.30;73.90
62912;DHT22;49111;51.028;4.218;2022-08-21T16:29:33;25.30;73.90
62912;DHT22;49111;51.028;4.218;2022-08-21T16:31:59;25.30;75.80
62912;DHT22;49111;51.028;4.218;2022-08-21T16:34:26;25.40;76.30
62912;DHT22;49111;51.028;4.218;2022-08-21T16:36:53;25.40;76.80
62912;DHT22;49111;51.028;4.218;2022-08-21T16:39:19;25.40;76.70
62912;DHT22;49111;51.028;4.218;2022-08-21T16:41:46;25.40;75.40
62912;DHT22;49111;51.028;4.218;2022-08-21T16:44:13;25.50;77.80
62912;DHT22;49111;51.028;4.218;2022-08-21T16:46:40;25.40;75.80
62912;DHT22;49111;51.028;4.218;2022-08-21T16:49:06;25.40;76.30
62912;DHT22;49111;51.028;4.218;2022-08-21T16:51:33;25.50;75.70
62912;DHT22;49111;51.028;4.218;2022-08-21T16:53:59;25.50;75.60
62912;DHT22;49111;51.028;4.218;2022-08-21T16:56:26;25.50;74.90
62912;DHT22;49111;51.028;4.218;2022-08-21T16:58:53;25.50;74.00
62912;DHT22;49111;51.028;4.218;2022-08-21T17:01:22;25.60;74.30
62912;DHT22;49111;51.028;4.218;2022-08-21T17:03:49;25.60;74.50
62912;DHT22;49111;51.028;4.218;2022-08-21T17:06:19;25.60;76.50
62912;DHT22;49111;51.028;4.218;2022-08-21T17:08:45;25.70;74.60
62912;DHT22;49111;51.028;4.218;2022-08-21T17:13:55;25.50;74.60
62912;DHT22;49111;51.028;4.218;2022-08-21T17:16:22;25.40;76.60
62912;DHT22;49111;51.028;4.218;2022-08-21T17:18:48;25.30;75.90